Time;durP1;ratioP1;P1;durP2;ratioP2;P2;SDS_P1;SDS_P2;PMS_P1;PMS_P2;Temp;Humidity;BMP_temperature;BMP_pressure;BME280_temperature;BME280_humidity;BME280_pressure;Samples;Min_cycle;Max_cycle;Signal;HPM_P1;HPM_P2
2022/04/20 00:01:22;;;;;;;16.13;8.50;;;;;;;;;;4975758;28;20100;-49
2022/04/20 00:03:48;;;;;;;16.73;8.80;;;;;;;;;;4974882;28;20375;-54
2022/04/20 00:06:14;;;;;;;19.70;10.18;;;;;;;;;;4975214;28;20086;-54
2022/04/20 00:08:41;;;;;;;22.67;11.43;;;;;;;;;;4975421;28;20035;-52
2022/04/20 00:11:07;;;;;;;23.40;12.43;;;;;;;;;;4975316;28;20031;-56
2022/04/20 00:13:34;;;;;;;21.38;11.98;;;;;;;;;;4975024;28;20034;-51
2022/04/20 00:16:00;;;;;;;18.15;10.43;;;;;;;;;;4975081;28;20030;-53
2022/04/20 00:18:26;;;;;;;21.70;9.85;;;;;;;;;;4975041;28;20046;-53
2022/04/20 00:20:53;;;;;;;12.52;7.68;;;;;;;;;;4975208;28;20398;-53
2022/04/20 00:23:19;;;;;;;14.73;5.65;;;;;;;;;;4974969;28;20062;-51
2022/04/20 00:25:45;;;;;;;9.60;5.15;;;;;;;;;;4974427;28;20459;-54
2022/04/20 00:28:11;;;;;;;10.52;4.28;;;;;;;;;;4973145;28;20031;-52
2022/04/20 00:30:37;;;;;;;9.38;5.57;;;;;;;;;;4972818;28;20159;-55
2022/04/20 00:33:03;;;;;;;12.00;6.82;;;;;;;;;;4958179;28;20057;-53
2022/04/20 00:35:30;;;;;;;9.73;5.05;;;;;;;;;;4953855;29;20031;-55
2022/04/20 00:37:56;;;;;;;8.65;5.18;;;;;;;;;;4953588;29;20074;-57
2022/04/20 00:40:22;;;;;;;10.43;6.35;;;;;;;;;;4955246;29;20027;-49
2022/04/20 00:42:49;;;;;;;10.77;6.50;;;;;;;;;;4955999;29;20043;-54
2022/04/20 00:45:15;;;;;;;13.45;7.10;;;;;;;;;;4955144;29;20556;-58
2022/04/20 00:47:45;;;;;;;13.77;7.88;;;;;;;;;;4954585;29;20405;-52
2022/04/20 00:50:12;;;;;;;14.50;7.57;;;;;;;;;;4955339;29;20469;-53
2022/04/20 00:52:38;;;;;;;15.18;8.00;;;;;;;;;;4954928;29;20114;-55
2022/04/20 00:55:06;;;;;;;16.42;9.40;;;;;;;;;;4963152;28;20379;-55
2022/04/20 00:57:32;;;;;;;16.45;9.15;;;;;;;;;;4975126;28;20137;-54
2022/04/20 01:00:01;;;;;;;16.10;8.95;;;;;;;;;;4974239;28;20077;-56
2022/04/20 01:02:27;;;;;;;18.65;9.13;;;;;;;;;;4976835;28;20061;-55
2022/04/20 01:04:54;;;;;;;16.40;9.90;;;;;;;;;;4978760;28;20460;-54
2022/04/20 01:07:22;;;;;;;17.52;9.38;;;;;;;;;;4978231;28;20041;-56
2022/04/20 01:09:48;;;;;;;19.73;9.52;;;;;;;;;;4978357;28;20499;-52
2022/04/20 01:12:16;;;;;;;17.45;9.68;;;;;;;;;;4978310;28;20447;-54
2022/04/20 01:14:43;;;;;;;19.42;9.02;;;;;;;;;;4978255;28;20065;-54
2022/04/20 01:17:09;;;;;;;16.52;8.10;;;;;;;;;;4978462;28;20419;-53
2022/04/20 01:19:38;;;;;;;15.90;9.27;;;;;;;;;;4978511;28;20030;-56
2022/04/20 01:22:05;;;;;;;19.27;11.18;;;;;;;;;;4978447;28;20042;-54
2022/04/20 01:24:32;;;;;;;24.50;11.45;;;;;;;;;;4978205;28;20098;-56
2022/04/20 01:26:59;;;;;;;25.65;11.63;;;;;;;;;;4978075;28;20492;-55
2022/04/20 01:29:29;;;;;;;21.45;10.30;;;;;;;;;;4978055;28;20027;-55
2022/04/20 01:31:55;;;;;;;20.08;9.73;;;;;;;;;;4978009;28;20097;-52
2022/04/20 01:34:21;;;;;;;21.08;10.45;;;;;;;;;;4978524;28;20077;-54
2022/04/20 01:36:48;;;;;;;19.00;9.32;;;;;;;;;;4978244;28;20031;-54
2022/04/20 01:39:14;;;;;;;12.50;7.97;;;;;;;;;;4978159;28;20102;-56
2022/04/20 01:41:40;;;;;;;18.15;7.70;;;;;;;;;;4977588;28;20090;-56
2022/04/20 01:44:07;;;;;;;13.95;8.18;;;;;;;;;;4978347;28;20368;-56
2022/04/20 01:46:33;;;;;;;16.60;7.22;;;;;;;;;;4977651;28;20027;-55
2022/04/20 01:48:59;;;;;;;11.73;7.28;;;;;;;;;;4977927;28;20023;-54
2022/04/20 01:54:11;;;;;;;15.85;9.20;;;;;;;;;;4977938;28;20400;-53
2022/04/20 01:56:38;;;;;;;24.70;11.93;;;;;;;;;;4977586;28;20087;-52
2022/04/20 01:59:04;;;;;;;20.05;10.98;;;;;;;;;;4977803;28;20353;-54
2022/04/20 02:04:15;;;;;;;26.13;12.52;;;;;;;;;;4977311;28;20045;-51
2022/04/20 02:06:41;;;;;;;25.45;13.32;;;;;;;;;;4977967;28;20054;-53
2022/04/20 02:09:07;;;;;;;22.90;13.88;;;;;;;;;;4977682;28;20077;-51
2022/04/20 02:11:33;;;;;;;22.63;12.02;;;;;;;;;;4977312;28;20027;-50
2022/04/20 02:13:59;;;;;;;23.95;12.52;;;;;;;;;;4976336;28;20451;-54
2022/04/20 02:16:26;;;;;;;23.38;12.50;;;;;;;;;;4976912;28;20435;-51
2022/04/20 02:18:52;;;;;;;25.02;12.52;;;;;;;;;;4977472;28;20030;-52
2022/04/20 02:21:18;;;;;;;23.27;12.10;;;;;;;;;;4977422;28;20038;-51
2022/04/20 02:23:44;;;;;;;19.58;11.82;;;;;;;;;;4977095;28;20035;-55
2022/04/20 02:26:10;;;;;;;24.02;12.63;;;;;;;;;;4977330;28;20058;-54
2022/04/20 02:28:36;;;;;;;21.30;12.60;;;;;;;;;;4977285;28;20019;-56
2022/04/20 02:31:03;;;;;;;23.48;12.80;;;;;;;;;;4976907;28;20086;-51
2022/04/20 02:33:29;;;;;;;30.30;15.35;;;;;;;;;;4977247;28;20387;-53
2022/04/20 02:35:55;;;;;;;23.13;11.77;;;;;;;;;;4976860;28;20432;-54
2022/04/20 02:38:21;;;;;;;22.13;10.60;;;;;;;;;;4976781;28;20027;-50
2022/04/20 02:40:49;;;;;;;16.88;8.65;;;;;;;;;;4977060;28;20073;-53
2022/04/20 02:43:16;;;;;;;20.10;10.55;;;;;;;;;;4976734;28;20033;-54
2022/04/20 02:45:42;;;;;;;17.95;7.90;;;;;;;;;;4976574;28;20026;-51
2022/04/20 02:48:08;;;;;;;16.20;7.30;;;;;;;;;;4976887;28;20076;-55
2022/04/20 02:50:34;;;;;;;18.08;10.55;;;;;;;;;;4976885;28;20027;-52
2022/04/20 02:53:00;;;;;;;21.92;10.68;;;;;;;;;;4976541;28;20365;-55
2022/04/20 02:55:26;;;;;;;24.92;11.48;;;;;;;;;;4976549;28;20027;-53
2022/04/20 02:57:52;;;;;;;18.58;11.93;;;;;;;;;;4976477;28;20023;-54
2022/04/20 03:00:19;;;;;;;24.83;13.60;;;;;;;;;;4976111;28;20022;-53
2022/04/20 03:02:45;;;;;;;23.95;13.18;;;;;;;;;;4976401;28;20114;-55
2022/04/20 03:05:11;;;;;;;21.90;13.43;;;;;;;;;;4976932;28;20025;-56
2022/04/20 03:07:37;;;;;;;23.30;12.88;;;;;;;;;;4976182;28;20484;-54
2022/04/20 03:10:04;;;;;;;21.95;12.70;;;;;;;;;;4976531;28;20030;-57
2022/04/20 03:12:30;;;;;;;19.83;13.10;;;;;;;;;;4975896;28;20365;-57
2022/04/20 03:14:57;;;;;;;21.10;12.10;;;;;;;;;;4976406;28;20031;-56
2022/04/20 03:17:23;;;;;;;20.30;11.57;;;;;;;;;;4976147;28;20400;-54
2022/04/20 03:19:49;;;;;;;19.90;11.23;;;;;;;;;;4976004;28;20022;-59
2022/04/20 03:22:15;;;;;;;20.38;11.93;;;;;;;;;;4975989;28;20019;-57
2022/04/20 03:24:41;;;;;;;23.13;12.90;;;;;;;;;;4976008;28;20027;-52
2022/04/20 03:27:08;;;;;;;22.50;12.73;;;;;;;;;;4975599;28;20476;-49
2022/04/20 03:29:34;;;;;;;47.22;26.17;;;;;;;;;;4975856;28;20031;-50
2022/04/20 03:32:02;;;;;;;45.13;21.88;;;;;;;;;;4975973;28;20495;-52
2022/04/20 03:34:29;;;;;;;75.97;32.83;;;;;;;;;;4975998;28;20603;-48
2022/04/20 03:36:55;;;;;;;106.45;42.90;;;;;;;;;;4975937;28;20361;-53
2022/04/20 03:39:21;;;;;;;55.55;25.35;;;;;;;;;;4975897;28;20074;-53
2022/04/20 03:41:47;;;;;;;42.45;22.50;;;;;;;;;;4975409;28;20023;-56
2022/04/20 03:44:13;;;;;;;53.35;24.73;;;;;;;;;;4975705;28;20369;-52
2022/04/20 03:46:40;;;;;;;35.72;19.52;;;;;;;;;;4975766;28;20037;-53
2022/04/20 03:49:06;;;;;;;36.08;17.73;;;;;;;;;;4974985;28;20440;-52
2022/04/20 03:51:32;;;;;;;47.88;22.58;;;;;;;;;;4975234;28;20688;-55
2022/04/20 03:53:59;;;;;;;79.03;36.72;;;;;;;;;;4975572;28;20039;-57
2022/04/20 03:56:25;;;;;;;187.98;80.68;;;;;;;;;;4975342;28;20031;-51
2022/04/20 03:58:51;;;;;;;141.68;62.83;;;;;;;;;;4975624;28;20089;-56
2022/04/20 04:01:17;;;;;;;135.95;60.85;;;;;;;;;;4974841;28;20027;-55
2022/04/20 04:03:43;;;;;;;91.15;43.88;;;;;;;;;;4975375;28;20035;-53
2022/04/20 04:06:09;;;;;;;85.03;43.58;;;;;;;;;;4975484;28;20034;-53
2022/04/20 04:08:36;;;;;;;76.95;39.95;;;;;;;;;;4975583;28;20027;-55
2022/04/20 04:11:02;;;;;;;85.00;42.15;;;;;;;;;;4975112;28;20353;-56
2022/04/20 04:13:28;;;;;;;83.90;44.00;;;;;;;;;;4958391;28;20117;-52
2022/04/20 04:15:54;;;;;;;89.90;47.40;;;;;;;;;;4974743;28;20027;-53
2022/04/20 04:18:20;;;;;;;83.90;43.72;;;;;;;;;;4975302;28;20484;-56
2022/04/20 04:20:46;;;;;;;81.57;45.05;;;;;;;;;;4975190;28;20038;-53
2022/04/20 04:23:12;;;;;;;48.50;28.15;;;;;;;;;;4974861;28;20035;-55
2022/04/20 04:25:38;;;;;;;46.88;26.98;;;;;;;;;;4974643;28;20023;-54
2022/04/20 04:28:05;;;;;;;33.17;18.88;;;;;;;;;;4958199;28;20379;-57
2022/04/20 04:30:32;;;;;;;45.45;26.95;;;;;;;;;;4974605;28;20026;-53
2022/04/20 04:32:58;;;;;;;26.60;16.42;;;;;;;;;;4974499;28;20443;-53
2022/04/20 04:35:24;;;;;;;26.90;16.40;;;;;;;;;;4974287;28;20029;-58
2022/04/20 04:37:50;;;;;;;29.50;18.13;;;;;;;;;;4973367;28;20038;-55
2022/04/20 04:40:18;;;;;;;29.77;18.23;;;;;;;;;;4974922;28;20377;-53
2022/04/20 04:42:45;;;;;;;29.67;17.95;;;;;;;;;;4974926;28;20030;-53
2022/04/20 04:50:40;;;;;;;33.28;21.33;;;;;;;;;;4974457;28;20077;-58
2022/04/20 04:53:06;;;;;;;37.13;22.17;;;;;;;;;;4974810;28;20023;-54
2022/04/20 04:55:32;;;;;;;50.17;26.98;;;;;;;;;;4974863;28;20118;-51
2022/04/20 04:57:58;;;;;;;118.13;56.38;;;;;;;;;;4956974;28;20027;-55
2022/04/20 05:00:25;;;;;;;67.20;34.50;;;;;;;;;;4974444;28;20117;-56
2022/04/20 05:02:51;;;;;;;39.92;22.60;;;;;;;;;;4974678;28;20109;-57
2022/04/20 05:05:17;;;;;;;31.83;17.38;;;;;;;;;;4974156;28;20073;-54
2022/04/20 05:07:44;;;;;;;24.63;13.77;;;;;;;;;;4974702;28;20183;-52
2022/04/20 05:10:10;;;;;;;199.65;93.93;;;;;;;;;;4974616;28;20027;-56
2022/04/20 05:12:36;;;;;;;72.82;39.65;;;;;;;;;;4974162;28;20524;-56
2022/04/20 05:15:02;;;;;;;43.85;27.42;;;;;;;;;;4974667;28;20031;-56
2022/04/20 05:17:28;;;;;;;31.55;21.00;;;;;;;;;;4973530;28;20023;-57
2022/04/20 05:19:54;;;;;;;37.30;28.10;;;;;;;;;;4973459;28;20027;-56
2022/04/20 05:22:20;;;;;;;37.00;24.85;;;;;;;;;;4973988;28;20030;-55
2022/04/20 05:24:47;;;;;;;37.22;22.00;;;;;;;;;;4973935;28;20027;-51
2022/04/20 05:27:13;;;;;;;34.80;22.40;;;;;;;;;;4973290;28;20053;-52
2022/04/20 05:29:39;;;;;;;41.55;26.55;;;;;;;;;;4974030;28;20038;-54
2022/04/20 05:32:06;;;;;;;98.60;52.05;;;;;;;;;;4973660;28;20027;-51
2022/04/20 05:34:33;;;;;;;86.78;47.17;;;;;;;;;;4973861;28;20484;-53
2022/04/20 05:42:28;;;;;;;36.45;23.27;;;;;;;;;;4974333;28;20178;-49
2022/04/20 05:45:00;;;;;;;31.92;22.08;;;;;;;;;;4974028;28;20035;-53
2022/04/20 05:47:27;;;;;;;34.15;23.83;;;;;;;;;;4974236;28;20498;-55
2022/04/20 05:49:53;;;;;;;45.60;32.78;;;;;;;;;;4977730;28;20043;-51
2022/04/20 05:52:19;;;;;;;33.60;24.10;;;;;;;;;;4977652;28;20023;-54
2022/04/20 05:54:46;;;;;;;28.50;19.50;;;;;;;;;;4977231;28;20084;-55
2022/04/20 05:57:12;;;;;;;24.42;16.58;;;;;;;;;;4975501;28;20038;-50
2022/04/20 05:59:42;;;;;;;31.02;20.08;;;;;;;;;;4958984;28;20023;-57
2022/04/20 06:02:10;;;;;;;45.22;24.38;;;;;;;;;;4955878;29;20015;-55
2022/04/20 06:04:36;;;;;;;56.20;29.23;;;;;;;;;;4957570;29;20035;-54
2022/04/20 06:07:02;;;;;;;52.83;29.65;;;;;;;;;;4957498;29;20023;-48
2022/04/20 06:09:35;;;;;;;37.22;22.02;;;;;;;;;;4957371;29;20051;-54
2022/04/20 06:12:01;;;;;;;37.63;23.33;;;;;;;;;;4957637;29;20074;-56
2022/04/20 06:14:27;;;;;;;35.38;21.58;;;;;;;;;;4957342;29;20019;-53
2022/04/20 06:16:54;;;;;;;40.80;24.92;;;;;;;;;;4957664;29;20023;-54
2022/04/20 06:19:20;;;;;;;28.67;19.80;;;;;;;;;;4957050;29;20154;-54
2022/04/20 06:21:47;;;;;;;30.73;18.33;;;;;;;;;;4939535;29;20388;-55
2022/04/20 06:24:14;;;;;;;35.17;23.92;;;;;;;;;;4957453;29;20354;-54
2022/04/20 06:26:41;;;;;;;41.83;24.75;;;;;;;;;;4957287;29;20032;-52
2022/04/20 06:29:22;;;;;;;41.30;24.73;;;;;;;;;;4956846;29;20023;-55
2022/04/20 06:31:55;;;;;;;42.10;26.42;;;;;;;;;;4957003;29;20031;-51
2022/04/20 06:34:24;;;;;;;39.60;23.77;;;;;;;;;;4956975;29;20093;-54
2022/04/20 06:36:51;;;;;;;34.70;21.73;;;;;;;;;;4956926;29;20023;-54
2022/04/20 06:39:18;;;;;;;29.25;20.13;;;;;;;;;;4957050;29;20023;-55
2022/04/20 06:41:45;;;;;;;25.17;18.35;;;;;;;;;;4957266;29;20031;-55
2022/04/20 06:44:11;;;;;;;29.08;21.50;;;;;;;;;;4956098;29;20033;-55
2022/04/20 06:46:37;;;;;;;31.48;22.13;;;;;;;;;;4956720;29;20024;-55
2022/04/20 06:49:03;;;;;;;37.67;27.33;;;;;;;;;;4954772;29;20384;-55
2022/04/20 06:58:31;;;;;;;31.70;21.85;;;;;;;;;;4957105;29;20023;-52
2022/04/20 06:59:45;;;;;;;33.35;22.33;;;;;;;;;;4956613;28;20046;-55
2022/04/20 07:02:11;;;;;;;46.30;32.97;;;;;;;;;;4957327;29;20461;-52
2022/04/20 07:04:37;;;;;;;44.03;26.17;;;;;;;;;;4956968;29;20388;-48
2022/04/20 07:07:03;;;;;;;40.15;25.88;;;;;;;;;;4957362;29;20023;-52
2022/04/20 07:09:29;;;;;;;38.08;26.05;;;;;;;;;;4956840;29;20023;-55
2022/04/20 07:11:55;;;;;;;32.35;22.75;;;;;;;;;;4956604;29;20098;-51
2022/04/20 07:14:21;;;;;;;32.88;22.65;;;;;;;;;;4956942;29;20473;-55
2022/04/20 07:16:48;;;;;;;33.65;22.95;;;;;;;;;;4956650;29;20023;-53
2022/04/20 07:19:14;;;;;;;85.68;54.88;;;;;;;;;;4956445;29;20023;-50
2022/04/20 07:21:40;;;;;;;62.05;40.60;;;;;;;;;;4956715;29;20384;-50
2022/04/20 07:24:06;;;;;;;42.72;27.85;;;;;;;;;;4961666;28;20041;-54
2022/04/20 07:26:32;;;;;;;33.47;21.33;;;;;;;;;;4975527;28;20022;-51
2022/04/20 07:28:58;;;;;;;36.72;24.60;;;;;;;;;;4973958;28;20665;-51
2022/04/20 07:31:24;;;;;;;37.33;24.75;;;;;;;;;;4974324;28;20025;-50
2022/04/20 07:33:50;;;;;;;54.13;32.95;;;;;;;;;;4975009;28;20554;-53
2022/04/20 07:36:17;;;;;;;42.67;30.15;;;;;;;;;;4975222;28;20027;-57
2022/04/20 07:38:45;;;;;;;49.70;32.05;;;;;;;;;;4975719;28;20162;-54
2022/04/20 07:41:11;;;;;;;36.83;25.40;;;;;;;;;;4975639;28;20058;-51
2022/04/20 07:43:37;;;;;;;32.17;22.52;;;;;;;;;;4975890;28;20023;-56
2022/04/20 07:46:03;;;;;;;32.97;21.73;;;;;;;;;;4975519;28;20453;-54
2022/04/20 07:48:29;;;;;;;30.83;20.95;;;;;;;;;;4975589;28;20460;-53
2022/04/20 07:50:55;;;;;;;31.55;22.15;;;;;;;;;;4975483;28;20038;-50
2022/04/20 07:53:21;;;;;;;24.85;16.88;;;;;;;;;;4975307;28;20365;-54
2022/04/20 07:55:48;;;;;;;29.23;20.55;;;;;;;;;;4975720;28;20034;-49
2022/04/20 07:58:14;;;;;;;22.80;14.30;;;;;;;;;;4975802;28;20026;-55
2022/04/20 08:00:41;;;;;;;32.28;23.13;;;;;;;;;;4975310;28;20072;-55
2022/04/20 08:03:08;;;;;;;23.08;17.08;;;;;;;;;;4975180;28;20045;-56
2022/04/20 08:05:34;;;;;;;28.38;20.00;;;;;;;;;;4974952;28;20035;-52
2022/04/20 08:08:00;;;;;;;32.72;23.02;;;;;;;;;;4975199;28;20034;-51
2022/04/20 08:10:26;;;;;;;51.03;32.13;;;;;;;;;;4975287;28;20036;-52
2022/04/20 08:12:52;;;;;;;30.30;18.95;;;;;;;;;;4974601;28;20045;-50
2022/04/20 08:15:18;;;;;;;17.30;12.52;;;;;;;;;;4974568;28;20029;-52
2022/04/20 08:17:45;;;;;;;18.20;12.77;;;;;;;;;;4975341;28;20026;-54
2022/04/20 08:20:11;;;;;;;25.17;14.27;;;;;;;;;;4974507;28;20023;-53
2022/04/20 08:22:42;;;;;;;19.63;12.02;;;;;;;;;;4974932;28;20484;-54
2022/04/20 08:25:09;;;;;;;10.90;8.57;;;;;;;;;;4974549;28;20023;-50
2022/04/20 08:27:35;;;;;;;12.73;9.68;;;;;;;;;;4974587;28;20249;-52
2022/04/20 08:30:01;;;;;;;17.65;13.07;;;;;;;;;;4974773;28;20025;-53
2022/04/20 08:32:28;;;;;;;44.38;27.85;;;;;;;;;;4974634;28;20031;-56
2022/04/20 08:34:54;;;;;;;29.17;19.13;;;;;;;;;;4975225;28;20023;-53
2022/04/20 08:37:20;;;;;;;21.00;14.25;;;;;;;;;;4974746;28;20033;-52
2022/04/20 08:39:46;;;;;;;34.13;21.65;;;;;;;;;;4974690;28;20026;-50
2022/04/20 08:42:12;;;;;;;39.58;26.27;;;;;;;;;;4974437;28;20394;-52
2022/04/20 08:44:42;;;;;;;33.45;21.25;;;;;;;;;;4974827;28;20063;-50
2022/04/20 08:47:12;;;;;;;17.83;11.68;;;;;;;;;;4974856;28;20027;-50
2022/04/20 08:49:42;;;;;;;24.40;17.30;;;;;;;;;;4974299;28;20101;-53
2022/04/20 08:54:53;;;;;;;26.70;19.38;;;;;;;;;;4974918;28;20126;-54
2022/04/20 08:57:20;;;;;;;24.60;16.55;;;;;;;;;;4973859;28;20070;-52
2022/04/20 08:59:49;;;;;;;28.17;20.70;;;;;;;;;;4974568;28;20169;-53
2022/04/20 09:02:17;;;;;;;21.20;15.25;;;;;;;;;;4975215;28;20023;-51
2022/04/20 09:04:43;;;;;;;12.18;8.13;;;;;;;;;;4974446;28;20110;-53
2022/04/20 09:07:10;;;;;;;10.75;6.07;;;;;;;;;;4974363;28;20023;-48
2022/04/20 09:09:36;;;;;;;4.45;3.25;;;;;;;;;;4973641;28;20523;-52
2022/04/20 09:12:07;;;;;;;5.95;4.22;;;;;;;;;;4974970;28;20031;-54
2022/04/20 09:14:33;;;;;;;4.97;3.92;;;;;;;;;;4974767;28;20038;-53
2022/04/20 09:17:03;;;;;;;6.63;5.05;;;;;;;;;;4974388;28;20105;-55
2022/04/20 09:19:29;;;;;;;7.32;4.90;;;;;;;;;;4974202;28;20038;-57
2022/04/20 09:21:56;;;;;;;8.13;4.80;;;;;;;;;;4973983;28;20030;-58
2022/04/20 09:24:22;;;;;;;8.38;5.20;;;;;;;;;;4967728;28;20022;-55
2022/04/20 09:26:58;;;;;;;10.20;5.28;;;;;;;;;;4977844;28;20085;-56
2022/04/20 09:29:24;;;;;;;10.90;7.07;;;;;;;;;;4977738;28;20027;-58
2022/04/20 09:31:51;;;;;;;21.13;10.30;;;;;;;;;;4977932;28;20093;-55
2022/04/20 09:34:26;;;;;;;18.02;12.13;;;;;;;;;;4978397;28;20055;-57
2022/04/20 09:36:54;;;;;;;19.10;12.88;;;;;;;;;;4978248;28;20041;-52
2022/04/20 09:39:21;;;;;;;20.33;12.52;;;;;;;;;;4978049;28;20486;-55
2022/04/20 09:42:01;;;;;;;20.77;14.00;;;;;;;;;;4978043;28;20034;-53
2022/04/20 09:44:27;;;;;;;22.98;14.70;;;;;;;;;;4978210;28;20077;-56
2022/04/20 09:49:58;;;;;;;24.92;13.50;;;;;;;;;;4977355;28;20103;-56
2022/04/20 09:52:25;;;;;;;21.52;12.57;;;;;;;;;;4977281;28;20077;-56
2022/04/20 09:54:55;;;;;;;17.70;12.23;;;;;;;;;;4977333;28;20052;-56
2022/04/20 09:57:21;;;;;;;17.05;12.20;;;;;;;;;;4978295;28;20061;-53
2022/04/20 09:59:59;;;;;;;19.17;11.73;;;;;;;;;;4977529;28;20057;-57
2022/04/20 10:02:27;;;;;;;17.23;11.20;;;;;;;;;;4977670;28;20027;-56
2022/04/20 10:04:55;;;;;;;16.58;11.90;;;;;;;;;;4977614;28;20019;-55
2022/04/20 10:07:21;;;;;;;12.55;9.48;;;;;;;;;;4977236;28;20027;-55
2022/04/20 10:09:48;;;;;;;13.10;10.18;;;;;;;;;;4976850;28;20027;-55
2022/04/20 10:12:18;;;;;;;12.73;8.88;;;;;;;;;;4974806;28;20404;-55
2022/04/20 10:17:32;;;;;;;11.68;7.57;;;;;;;;;;4975600;28;20116;-53
2022/04/20 10:20:00;;;;;;;9.13;6.45;;;;;;;;;;4976203;28;20046;-55
2022/04/20 10:22:27;;;;;;;11.18;7.13;;;;;;;;;;4977228;28;20162;-54
2022/04/20 10:24:56;;;;;;;9.95;5.93;;;;;;;;;;4977356;28;20033;-56
2022/04/20 10:27:35;;;;;;;8.63;6.30;;;;;;;;;;4977068;28;20050;-55
2022/04/20 10:30:10;;;;;;;8.60;6.32;;;;;;;;;;4976818;28;20027;-56
2022/04/20 10:32:49;;;;;;;6.93;4.95;;;;;;;;;;4977161;28;20121;-54
2022/04/20 10:35:16;;;;;;;9.95;5.07;;;;;;;;;;4975408;28;20031;-54
2022/04/20 10:38:03;;;;;;;7.45;5.15;;;;;;;;;;4976916;28;20110;-56
2022/04/20 10:40:29;;;;;;;7.10;5.20;;;;;;;;;;4975265;28;20037;-55
2022/04/20 10:43:14;;;;;;;7.97;5.43;;;;;;;;;;4974902;28;20048;-55
2022/04/20 10:46:00;;;;;;;7.10;5.03;;;;;;;;;;4975499;28;20391;-51
2022/04/20 10:48:26;;;;;;;10.23;5.97;;;;;;;;;;4976166;28;20022;-54
2022/04/20 10:51:11;;;;;;;11.00;6.50;;;;;;;;;;4976135;28;20436;-56
2022/04/20 10:53:39;;;;;;;7.72;4.88;;;;;;;;;;4974724;28;20093;-56
2022/04/20 10:56:06;;;;;;;6.85;3.55;;;;;;;;;;4975871;28;20515;-54
2022/04/20 10:58:32;;;;;;;6.90;4.57;;;;;;;;;;4974563;28;20392;-52
2022/04/20 11:01:07;;;;;;;5.72;3.90;;;;;;;;;;4975448;28;20405;-52
2022/04/20 11:03:55;;;;;;;5.90;4.22;;;;;;;;;;4976151;28;20030;-53
2022/04/20 11:06:26;;;;;;;6.45;5.00;;;;;;;;;;4976045;28;20031;-52
2022/04/20 11:08:53;;;;;;;6.82;5.30;;;;;;;;;;4976009;28;20018;-53
2022/04/20 11:19:49;;;;;;;6.57;4.63;;;;;;;;;;4976160;28;20033;-53
2022/04/20 11:22:16;;;;;;;6.53;4.70;;;;;;;;;;4976013;28;20065;-51
2022/04/20 11:24:42;;;;;;;9.73;6.07;;;;;;;;;;4976317;28;20019;-54
2022/04/20 11:27:08;;;;;;;7.82;4.90;;;;;;;;;;4976717;28;20034;-54
2022/04/20 11:29:35;;;;;;;9.05;5.97;;;;;;;;;;4975885;28;20031;-53
2022/04/20 11:32:02;;;;;;;7.18;6.15;;;;;;;;;;4975646;28;20471;-52
2022/04/20 11:34:31;;;;;;;9.60;6.15;;;;;;;;;;4976197;28;20042;-55
2022/04/20 11:37:00;;;;;;;8.82;5.15;;;;;;;;;;4975662;28;20442;-54
2022/04/20 11:39:26;;;;;;;7.80;4.70;;;;;;;;;;4976185;28;20125;-52
2022/04/20 11:41:54;;;;;;;8.32;5.13;;;;;;;;;;4976055;28;20049;-54
2022/04/20 11:44:30;;;;;;;5.07;3.92;;;;;;;;;;4975494;28;20480;-50
2022/04/20 11:47:07;;;;;;;8.70;5.18;;;;;;;;;;4975212;28;20460;-53
2022/04/20 11:49:33;;;;;;;8.73;5.65;;;;;;;;;;4976318;28;20034;-53
2022/04/20 11:51:59;;;;;;;6.55;4.13;;;;;;;;;;4975407;28;20034;-50
2022/04/20 11:54:27;;;;;;;7.40;4.35;;;;;;;;;;4975589;28;20089;-56
2022/04/20 11:56:53;;;;;;;5.72;3.83;;;;;;;;;;4975615;28;20038;-53
2022/04/20 11:59:21;;;;;;;3.78;2.67;;;;;;;;;;4975094;28;20019;-54
2022/04/20 12:01:48;;;;;;;4.93;2.60;;;;;;;;;;4975767;28;20472;-56
2022/04/20 12:04:14;;;;;;;5.38;3.63;;;;;;;;;;4975093;28;20023;-51
2022/04/20 12:06:44;;;;;;;6.53;4.22;;;;;;;;;;4975526;28;20031;-51
2022/04/20 12:09:11;;;;;;;10.80;6.50;;;;;;;;;;4975443;28;20077;-54
2022/04/20 12:11:37;;;;;;;9.02;6.00;;;;;;;;;;4975095;28;20033;-51
2022/04/20 12:14:03;;;;;;;9.80;6.70;;;;;;;;;;4975262;28;20035;-52
2022/04/20 12:16:33;;;;;;;6.57;4.22;;;;;;;;;;4975087;28;20023;-54
2022/04/20 12:19:00;;;;;;;4.77;3.63;;;;;;;;;;4958247;28;20381;-53
2022/04/20 12:21:36;;;;;;;5.45;4.32;;;;;;;;;;4975344;28;20066;-55
2022/04/20 12:24:03;;;;;;;7.07;4.97;;;;;;;;;;4975247;28;20035;-54
2022/04/20 12:26:30;;;;;;;11.88;6.10;;;;;;;;;;4974833;28;20526;-54
2022/04/20 12:28:59;;;;;;;10.52;5.50;;;;;;;;;;4975103;28;20086;-52
2022/04/20 12:31:26;;;;;;;7.07;4.80;;;;;;;;;;4975539;28;20027;-54
2022/04/20 12:34:05;;;;;;;9.95;5.57;;;;;;;;;;4975316;28;20043;-50
2022/04/20 12:36:32;;;;;;;8.10;4.45;;;;;;;;;;4974687;28;20046;-51
2022/04/20 12:38:59;;;;;;;9.05;6.20;;;;;;;;;;4975261;28;20023;-51
2022/04/20 12:41:44;;;;;;;13.55;8.52;;;;;;;;;;4974668;28;20033;-51
2022/04/20 12:44:31;;;;;;;18.00;9.82;;;;;;;;;;4974254;28;20035;-53
2022/04/20 12:46:57;;;;;;;7.82;5.50;;;;;;;;;;4974865;28;20365;-48
2022/04/20 12:49:24;;;;;;;8.10;4.40;;;;;;;;;;4974843;28;20438;-52
2022/04/20 12:51:51;;;;;;;5.10;4.05;;;;;;;;;;4974159;28;20110;-52
2022/04/20 12:54:24;;;;;;;8.10;5.00;;;;;;;;;;4974685;28;20073;-55
2022/04/20 13:02:21;;;;;;;9.25;5.70;;;;;;;;;;4981482;28;20053;-52
2022/04/20 13:04:50;;;;;;;9.02;5.97;;;;;;;;;;4981042;28;20423;-55
2022/04/20 13:07:16;;;;;;;10.07;5.35;;;;;;;;;;4981473;28;20034;-52
2022/04/20 13:09:43;;;;;;;11.82;5.55;;;;;;;;;;4980795;28;20055;-51
2022/04/20 13:12:09;;;;;;;8.35;5.70;;;;;;;;;;4984871;28;20030;-55
2022/04/20 13:14:36;;;;;;;8.40;5.43;;;;;;;;;;4988660;28;20065;-54
2022/04/20 13:17:02;;;;;;;4.68;3.88;;;;;;;;;;4988728;28;20081;-54
2022/04/20 13:19:28;;;;;;;5.13;3.53;;;;;;;;;;4989211;28;20081;-53
2022/04/20 13:21:55;;;;;;;7.57;4.57;;;;;;;;;;4988821;28;20031;-54
2022/04/20 13:29:50;;;;;;;16.95;11.05;;;;;;;;;;4989906;28;20038;-52
2022/04/20 13:32:16;;;;;;;11.85;8.48;;;;;;;;;;4987902;28;20475;-56
2022/04/20 13:34:42;;;;;;;8.85;5.50;;;;;;;;;;4988912;28;20127;-55
2022/04/20 13:37:09;;;;;;;6.97;5.13;;;;;;;;;;4993475;28;20080;-53
2022/04/20 13:39:35;;;;;;;7.70;4.95;;;;;;;;;;4999882;28;20026;-56
2022/04/20 13:42:01;;;;;;;6.05;3.90;;;;;;;;;;4996897;28;20506;-60
2022/04/20 13:44:27;;;;;;;7.18;4.80;;;;;;;;;;4962507;28;20027;-55
2022/04/20 13:46:53;;;;;;;6.95;4.10;;;;;;;;;;4963430;28;20027;-54
2022/04/20 13:49:19;;;;;;;4.30;2.85;;;;;;;;;;4993078;28;20018;-54
2022/04/20 13:51:46;;;;;;;7.38;5.53;;;;;;;;;;4999912;28;20417;-51
2022/04/20 13:54:12;;;;;;;3.88;2.75;;;;;;;;;;4999706;28;20038;-52
2022/04/20 13:56:38;;;;;;;5.03;3.20;;;;;;;;;;4982362;28;20510;-51
2022/04/20 13:59:05;;;;;;;3.88;2.50;;;;;;;;;;4993180;28;20034;-54
2022/04/20 14:01:31;;;;;;;4.78;3.35;;;;;;;;;;4988260;28;20030;-52
2022/04/20 14:03:57;;;;;;;5.47;3.88;;;;;;;;;;4994405;28;20034;-55
2022/04/20 14:06:23;;;;;;;9.07;5.63;;;;;;;;;;4990927;28;20030;-55
2022/04/20 14:08:49;;;;;;;5.75;4.60;;;;;;;;;;4989095;28;20022;-53
2022/04/20 14:11:15;;;;;;;8.95;6.10;;;;;;;;;;4985109;28;20054;-52
2022/04/20 14:13:43;;;;;;;7.60;5.15;;;;;;;;;;4985511;28;20030;-57
2022/04/20 14:16:09;;;;;;;9.90;5.70;;;;;;;;;;4987063;28;20026;-57
2022/04/20 14:18:35;;;;;;;16.52;10.63;;;;;;;;;;4985357;28;20035;-53
2022/04/20 14:21:01;;;;;;;10.88;7.15;;;;;;;;;;4985071;28;20060;-55
2022/04/20 14:23:29;;;;;;;15.85;9.77;;;;;;;;;;4986767;28;20101;-51
2022/04/20 14:34:09;;;;;;;12.23;7.13;;;;;;;;;;4985966;28;20539;-55
2022/04/20 14:36:38;;;;;;;8.80;6.93;;;;;;;;;;4985026;28;20102;-52
2022/04/20 14:39:04;;;;;;;8.13;6.15;;;;;;;;;;4986344;28;20450;-53
2022/04/20 14:41:31;;;;;;;11.15;7.78;;;;;;;;;;4987304;28;20448;-54
2022/04/20 14:43:57;;;;;;;9.02;7.00;;;;;;;;;;4981854;28;20026;-56
2022/04/20 14:46:24;;;;;;;10.77;8.00;;;;;;;;;;4995784;28;20026;-52
2022/04/20 14:48:50;;;;;;;11.60;8.40;;;;;;;;;;4995819;28;20028;-56
2022/04/20 14:51:21;;;;;;;14.27;10.00;;;;;;;;;;4996215;28;20423;-55
2022/04/20 14:53:48;;;;;;;13.50;8.95;;;;;;;;;;4996099;28;20038;-54
2022/04/20 14:56:14;;;;;;;14.18;10.38;;;;;;;;;;4995820;28;20062;-55
2022/04/20 14:58:40;;;;;;;12.40;9.35;;;;;;;;;;4996232;28;20032;-55
2022/04/20 15:01:07;;;;;;;12.30;8.68;;;;;;;;;;4995726;28;20105;-57
2022/04/20 15:03:33;;;;;;;11.88;9.45;;;;;;;;;;4995755;28;20034;-54
2022/04/20 15:05:59;;;;;;;11.55;9.20;;;;;;;;;;4995643;28;20027;-56
2022/04/20 15:08:25;;;;;;;17.50;9.80;;;;;;;;;;4995726;28;20109;-56
2022/04/20 15:10:51;;;;;;;13.40;9.40;;;;;;;;;;4995879;28;20030;-59
2022/04/20 15:13:20;;;;;;;11.35;8.85;;;;;;;;;;4995587;28;20030;-57
2022/04/20 15:15:46;;;;;;;9.18;7.68;;;;;;;;;;4995569;28;20026;-63
2022/04/20 15:18:13;;;;;;;16.10;10.93;;;;;;;;;;4995234;28;20430;-57
2022/04/20 15:20:39;;;;;;;13.80;9.88;;;;;;;;;;4995306;28;20105;-60
2022/04/20 15:23:07;;;;;;;14.63;11.07;;;;;;;;;;4996060;28;20029;-59
2022/04/20 15:25:33;;;;;;;17.83;12.38;;;;;;;;;;4995434;28;20029;-61